sensor_id;sensor_type;location;lat;lon;timestamp;P1;durP1;ratioP1;P2;durP2;ratioP2
39176;SDS011;24904;52.208;21.192;2023-07-29T00:04:49;9.70;;;5.70;;
39176;SDS011;24904;52.208;21.192;2023-07-29T00:09:54;14.50;;;5.10;;
39176;SDS011;24904;52.208;21.192;2023-07-29T00:15:00;9.50;;;6.20;;
39176;SDS011;24904;52.208;21.192;2023-07-29T00:20:06;8.10;;;5.40;;
39176;SDS011;24904;52.208;21.192;2023-07-29T00:25:12;7.60;;;6.10;;
39176;SDS011;24904;52.208;21.192;2023-07-29T00:30:17;9.30;;;5.30;;
39176;SDS011;24904;52.208;21.192;2023-07-29T00:35:22;8.90;;;5.40;;
39176;SDS011;24904;52.208;21.192;2023-07-29T00:40:27;13.00;;;5.70;;
39176;SDS011;24904;52.208;21.192;2023-07-29T00:45:33;6.90;;;5.10;;
39176;SDS011;24904;52.208;21.192;2023-07-29T00:50:39;8.10;;;5.30;;
39176;SDS011;24904;52.208;21.192;2023-07-29T00:55:45;9.90;;;5.90;;
39176;SDS011;24904;52.208;21.192;2023-07-29T01:00:51;7.20;;;5.20;;
39176;SDS011;24904;52.208;21.192;2023-07-29T01:06:01;10.10;;;6.20;;
39176;SDS011;24904;52.208;21.192;2023-07-29T01:11:17;9.30;;;6.10;;
39176;SDS011;24904;52.208;21.192;2023-07-29T01:16:35;9.00;;;5.80;;
39176;SDS011;24904;52.208;21.192;2023-07-29T01:21:45;12.90;;;6.50;;
39176;SDS011;24904;52.208;21.192;2023-07-29T01:26:50;5.30;;;4.50;;
39176;SDS011;24904;52.208;21.192;2023-07-29T01:31:56;6.60;;;5.20;;
39176;SDS011;24904;52.208;21.192;2023-07-29T01:37:07;7.40;;;4.40;;
39176;SDS011;24904;52.208;21.192;2023-07-29T01:42:17;6.50;;;4.70;;
39176;SDS011;24904;52.208;21.192;2023-07-29T01:47:23;5.20;;;4.10;;
39176;SDS011;24904;52.208;21.192;2023-07-29T01:52:30;7.70;;;5.10;;
39176;SDS011;24904;52.208;21.192;2023-07-29T01:57:35;6.40;;;5.10;;
39176;SDS011;24904;52.208;21.192;2023-07-29T02:02:40;6.20;;;5.10;;
39176;SDS011;24904;52.208;21.192;2023-07-29T02:07:46;6.30;;;4.50;;
39176;SDS011;24904;52.208;21.192;2023-07-29T02:12:50;10.10;;;3.90;;
39176;SDS011;24904;52.208;21.192;2023-07-29T02:17:55;6.40;;;4.30;;
39176;SDS011;24904;52.208;21.192;2023-07-29T02:23:02;6.40;;;4.30;;
39176;SDS011;24904;52.208;21.192;2023-07-29T02:28:08;5.00;;;3.90;;
39176;SDS011;24904;52.208;21.192;2023-07-29T02:33:13;4.90;;;3.80;;
39176;SDS011;24904;52.208;21.192;2023-07-29T02:38:18;5.40;;;3.80;;
39176;SDS011;24904;52.208;21.192;2023-07-29T02:43:23;7.00;;;4.60;;
39176;SDS011;24904;52.208;21.192;2023-07-29T02:48:28;6.10;;;4.20;;
39176;SDS011;24904;52.208;21.192;2023-07-29T02:53:33;6.50;;;4.10;;
39176;SDS011;24904;52.208;21.192;2023-07-29T02:58:39;5.80;;;3.90;;
39176;SDS011;24904;52.208;21.192;2023-07-29T03:03:44;9.40;;;4.60;;
39176;SDS011;24904;52.208;21.192;2023-07-29T03:08:49;7.40;;;5.30;;
39176;SDS011;24904;52.208;21.192;2023-07-29T03:13:54;7.80;;;4.10;;
39176;SDS011;24904;52.208;21.192;2023-07-29T03:19:00;5.80;;;4.30;;
39176;SDS011;24904;52.208;21.192;2023-07-29T03:24:05;6.40;;;4.50;;
39176;SDS011;24904;52.208;21.192;2023-07-29T03:29:10;8.60;;;4.40;;
39176;SDS011;24904;52.208;21.192;2023-07-29T03:34:15;10.00;;;4.70;;
39176;SDS011;24904;52.208;21.192;2023-07-29T03:39:22;7.20;;;4.40;;
39176;SDS011;24904;52.208;21.192;2023-07-29T03:44:27;6.70;;;4.60;;
39176;SDS011;24904;52.208;21.192;2023-07-29T03:49:33;8.60;;;4.80;;
39176;SDS011;24904;52.208;21.192;2023-07-29T03:54:38;7.60;;;5.70;;
39176;SDS011;24904;52.208;21.192;2023-07-29T03:59:43;8.40;;;4.80;;
39176;SDS011;24904;52.208;21.192;2023-07-29T04:04:48;12.60;;;6.20;;
39176;SDS011;24904;52.208;21.192;2023-07-29T04:09:53;10.10;;;5.90;;
39176;SDS011;24904;52.208;21.192;2023-07-29T04:14:58;23.80;;;8.30;;
39176;SDS011;24904;52.208;21.192;2023-07-29T04:20:04;13.20;;;8.10;;
39176;SDS011;24904;52.208;21.192;2023-07-29T04:25:10;11.30;;;7.10;;
39176;SDS011;24904;52.208;21.192;2023-07-29T04:30:15;10.80;;;7.30;;
39176;SDS011;24904;52.208;21.192;2023-07-29T04:35:21;11.30;;;7.70;;
39176;SDS011;24904;52.208;21.192;2023-07-29T04:40:26;9.20;;;6.00;;
39176;SDS011;24904;52.208;21.192;2023-07-29T04:45:31;11.00;;;6.30;;
39176;SDS011;24904;52.208;21.192;2023-07-29T04:50:36;10.90;;;6.40;;
39176;SDS011;24904;52.208;21.192;2023-07-29T04:55:42;12.70;;;7.10;;
39176;SDS011;24904;52.208;21.192;2023-07-29T05:00:48;11.00;;;8.00;;
39176;SDS011;24904;52.208;21.192;2023-07-29T05:05:53;12.00;;;8.40;;
39176;SDS011;24904;52.208;21.192;2023-07-29T05:10:59;16.50;;;9.80;;
39176;SDS011;24904;52.208;21.192;2023-07-29T05:16:04;13.70;;;11.00;;
39176;SDS011;24904;52.208;21.192;2023-07-29T05:21:09;20.20;;;13.90;;
39176;SDS011;24904;52.208;21.192;2023-07-29T05:26:16;23.50;;;16.20;;
39176;SDS011;24904;52.208;21.192;2023-07-29T05:31:21;19.30;;;15.40;;
39176;SDS011;24904;52.208;21.192;2023-07-29T05:36:27;18.00;;;15.20;;
39176;SDS011;24904;52.208;21.192;2023-07-29T05:41:32;20.00;;;15.90;;
39176;SDS011;24904;52.208;21.192;2023-07-29T05:46:37;19.10;;;16.40;;
39176;SDS011;24904;52.208;21.192;2023-07-29T05:51:43;18.00;;;15.80;;
39176;SDS011;24904;52.208;21.192;2023-07-29T05:56:48;19.50;;;15.00;;
39176;SDS011;24904;52.208;21.192;2023-07-29T06:01:52;15.90;;;14.10;;
39176;SDS011;24904;52.208;21.192;2023-07-29T06:06:58;19.60;;;15.10;;
39176;SDS011;24904;52.208;21.192;2023-07-29T06:12:04;14.40;;;12.90;;
39176;SDS011;24904;52.208;21.192;2023-07-29T06:17:09;14.30;;;12.80;;
39176;SDS011;24904;52.208;21.192;2023-07-29T06:22:15;16.90;;;12.50;;
39176;SDS011;24904;52.208;21.192;2023-07-29T06:27:20;15.20;;;12.70;;
39176;SDS011;24904;52.208;21.192;2023-07-29T06:32:26;16.60;;;13.00;;
39176;SDS011;24904;52.208;21.192;2023-07-29T06:37:31;17.20;;;14.30;;
39176;SDS011;24904;52.208;21.192;2023-07-29T06:42:36;16.40;;;14.30;;
39176;SDS011;24904;52.208;21.192;2023-07-29T06:47:41;18.80;;;13.70;;
39176;SDS011;24904;52.208;21.192;2023-07-29T06:52:46;19.10;;;16.00;;
39176;SDS011;24904;52.208;21.192;2023-07-29T06:57:51;16.70;;;14.70;;
39176;SDS011;24904;52.208;21.192;2023-07-29T07:02:56;17.60;;;15.50;;
39176;SDS011;24904;52.208;21.192;2023-07-29T07:08:01;20.90;;;15.40;;
39176;SDS011;24904;52.208;21.192;2023-07-29T07:13:06;17.30;;;14.60;;
39176;SDS011;24904;52.208;21.192;2023-07-29T07:18:11;19.70;;;15.60;;
39176;SDS011;24904;52.208;21.192;2023-07-29T07:23:16;17.60;;;14.40;;
39176;SDS011;24904;52.208;21.192;2023-07-29T07:28:22;17.50;;;15.10;;
39176;SDS011;24904;52.208;21.192;2023-07-29T07:33:27;17.90;;;15.80;;
39176;SDS011;24904;52.208;21.192;2023-07-29T07:38:32;19.70;;;15.30;;
39176;SDS011;24904;52.208;21.192;2023-07-29T07:43:37;20.80;;;14.90;;
39176;SDS011;24904;52.208;21.192;2023-07-29T07:48:42;13.80;;;12.40;;
39176;SDS011;24904;52.208;21.192;2023-07-29T07:53:48;15.00;;;11.90;;
39176;SDS011;24904;52.208;21.192;2023-07-29T07:58:53;13.80;;;12.10;;
39176;SDS011;24904;52.208;21.192;2023-07-29T08:03:58;12.10;;;10.90;;
39176;SDS011;24904;52.208;21.192;2023-07-29T08:09:03;11.80;;;10.60;;
39176;SDS011;24904;52.208;21.192;2023-07-29T08:14:08;12.00;;;9.40;;
39176;SDS011;24904;52.208;21.192;2023-07-29T08:19:13;13.40;;;11.10;;
39176;SDS011;24904;52.208;21.192;2023-07-29T08:24:18;10.90;;;9.50;;
39176;SDS011;24904;52.208;21.192;2023-07-29T08:29:23;11.40;;;8.90;;
39176;SDS011;24904;52.208;21.192;2023-07-29T08:34:28;9.10;;;7.60;;
39176;SDS011;24904;52.208;21.192;2023-07-29T08:39:33;8.80;;;7.10;;
39176;SDS011;24904;52.208;21.192;2023-07-29T08:44:40;7.60;;;6.60;;
39176;SDS011;24904;52.208;21.192;2023-07-29T08:49:46;7.20;;;6.30;;
39176;SDS011;24904;52.208;21.192;2023-07-29T08:54:53;8.30;;;6.20;;
39176;SDS011;24904;52.208;21.192;2023-07-29T08:59:59;7.10;;;5.00;;
39176;SDS011;24904;52.208;21.192;2023-07-29T09:05:06;10.50;;;5.00;;
39176;SDS011;24904;52.208;21.192;2023-07-29T09:10:12;8.90;;;5.70;;
39176;SDS011;24904;52.208;21.192;2023-07-29T09:15:27;5.30;;;4.30;;
39176;SDS011;24904;52.208;21.192;2023-07-29T09:20:33;3.60;;;3.10;;
39176;SDS011;24904;52.208;21.192;2023-07-29T09:25:38;5.00;;;3.30;;
39176;SDS011;24904;52.208;21.192;2023-07-29T09:30:46;4.10;;;3.20;;
39176;SDS011;24904;52.208;21.192;2023-07-29T09:35:52;3.70;;;3.30;;
39176;SDS011;24904;52.208;21.192;2023-07-29T09:40:57;5.00;;;2.40;;
39176;SDS011;24904;52.208;21.192;2023-07-29T09:46:03;10.80;;;2.90;;
39176;SDS011;24904;52.208;21.192;2023-07-29T09:51:12;5.10;;;2.90;;
39176;SDS011;24904;52.208;21.192;2023-07-29T09:56:18;3.30;;;2.50;;
39176;SDS011;24904;52.208;21.192;2023-07-29T10:01:29;3.30;;;2.40;;
39176;SDS011;24904;52.208;21.192;2023-07-29T10:06:36;3.70;;;1.80;;
39176;SDS011;24904;52.208;21.192;2023-07-29T10:11:43;5.90;;;2.30;;
39176;SDS011;24904;52.208;21.192;2023-07-29T10:16:48;2.70;;;2.20;;
39176;SDS011;24904;52.208;21.192;2023-07-29T10:21:54;2.60;;;2.20;;
39176;SDS011;24904;52.208;21.192;2023-07-29T10:27:02;3.30;;;1.90;;
39176;SDS011;24904;52.208;21.192;2023-07-29T10:32:09;3.40;;;2.10;;
39176;SDS011;24904;52.208;21.192;2023-07-29T10:37:15;5.10;;;2.30;;
39176;SDS011;24904;52.208;21.192;2023-07-29T10:42:21;7.00;;;2.40;;
39176;SDS011;24904;52.208;21.192;2023-07-29T10:47:27;3.60;;;2.10;;
39176;SDS011;24904;52.208;21.192;2023-07-29T10:52:40;3.50;;;2.30;;
39176;SDS011;24904;52.208;21.192;2023-07-29T10:57:45;5.40;;;2.50;;
39176;SDS011;24904;52.208;21.192;2023-07-29T11:02:59;5.00;;;2.30;;
39176;SDS011;24904;52.208;21.192;2023-07-29T11:08:06;4.40;;;2.10;;
39176;SDS011;24904;52.208;21.192;2023-07-29T11:13:21;4.60;;;2.20;;
39176;SDS011;24904;52.208;21.192;2023-07-29T11:18:29;3.50;;;2.20;;
39176;SDS011;24904;52.208;21.192;2023-07-29T11:23:35;4.10;;;2.10;;
39176;SDS011;24904;52.208;21.192;2023-07-29T11:28:41;5.60;;;2.40;;
39176;SDS011;24904;52.208;21.192;2023-07-29T11:33:46;7.40;;;2.30;;
39176;SDS011;24904;52.208;21.192;2023-07-29T11:38:51;4.40;;;2.30;;
39176;SDS011;24904;52.208;21.192;2023-07-29T11:43:56;5.20;;;2.10;;
39176;SDS011;24904;52.208;21.192;2023-07-29T11:49:02;3.20;;;2.00;;
39176;SDS011;24904;52.208;21.192;2023-07-29T11:54:07;2.20;;;1.80;;
39176;SDS011;24904;52.208;21.192;2023-07-29T11:59:13;4.00;;;2.20;;
39176;SDS011;24904;52.208;21.192;2023-07-29T12:04:19;2.80;;;2.10;;
39176;SDS011;24904;52.208;21.192;2023-07-29T12:09:24;2.70;;;2.30;;
39176;SDS011;24904;52.208;21.192;2023-07-29T12:14:30;3.60;;;2.40;;
39176;SDS011;24904;52.208;21.192;2023-07-29T12:19:36;4.40;;;2.10;;
39176;SDS011;24904;52.208;21.192;2023-07-29T12:24:42;3.20;;;2.60;;
39176;SDS011;24904;52.208;21.192;2023-07-29T12:29:47;2.60;;;2.00;;
39176;SDS011;24904;52.208;21.192;2023-07-29T12:34:54;3.90;;;2.70;;
39176;SDS011;24904;52.208;21.192;2023-07-29T12:39:59;2.40;;;2.00;;
39176;SDS011;24904;52.208;21.192;2023-07-29T12:45:06;41.40;;;12.50;;
39176;SDS011;24904;52.208;21.192;2023-07-29T12:50:12;67.60;;;21.00;;
39176;SDS011;24904;52.208;21.192;2023-07-29T12:55:17;25.80;;;8.80;;
39176;SDS011;24904;52.208;21.192;2023-07-29T13:00:22;5.50;;;3.50;;
39176;SDS011;24904;52.208;21.192;2023-07-29T13:05:27;5.00;;;2.50;;
39176;SDS011;24904;52.208;21.192;2023-07-29T13:10:32;5.50;;;2.30;;
39176;SDS011;24904;52.208;21.192;2023-07-29T13:15:37;2.70;;;1.90;;
39176;SDS011;24904;52.208;21.192;2023-07-29T13:20:42;4.00;;;2.20;;
39176;SDS011;24904;52.208;21.192;2023-07-29T13:25:47;4.30;;;2.10;;
39176;SDS011;24904;52.208;21.192;2023-07-29T13:30:52;3.00;;;2.10;;
39176;SDS011;24904;52.208;21.192;2023-07-29T13:35:57;3.50;;;2.00;;
39176;SDS011;24904;52.208;21.192;2023-07-29T13:41:03;3.80;;;2.30;;
39176;SDS011;24904;52.208;21.192;2023-07-29T13:46:08;7.90;;;2.40;;
39176;SDS011;24904;52.208;21.192;2023-07-29T13:51:13;3.40;;;2.30;;
39176;SDS011;24904;52.208;21.192;2023-07-29T13:56:19;4.30;;;2.50;;
39176;SDS011;24904;52.208;21.192;2023-07-29T14:01:23;22.60;;;6.90;;
39176;SDS011;24904;52.208;21.192;2023-07-29T14:06:29;2.90;;;2.30;;
39176;SDS011;24904;52.208;21.192;2023-07-29T14:11:34;4.20;;;2.60;;
39176;SDS011;24904;52.208;21.192;2023-07-29T14:16:39;2.90;;;2.30;;
39176;SDS011;24904;52.208;21.192;2023-07-29T14:21:44;2.70;;;2.30;;
39176;SDS011;24904;52.208;21.192;2023-07-29T14:26:49;2.50;;;1.90;;
39176;SDS011;24904;52.208;21.192;2023-07-29T14:31:54;5.10;;;2.20;;
39176;SDS011;24904;52.208;21.192;2023-07-29T14:36:59;3.10;;;2.00;;
39176;SDS011;24904;52.208;21.192;2023-07-29T14:42:04;4.30;;;2.10;;
39176;SDS011;24904;52.208;21.192;2023-07-29T14:47:09;3.30;;;2.30;;
39176;SDS011;24904;52.208;21.192;2023-07-29T14:52:14;2.20;;;1.90;;
39176;SDS011;24904;52.208;21.192;2023-07-29T14:57:20;2.90;;;2.10;;
39176;SDS011;24904;52.208;21.192;2023-07-29T15:02:24;10.40;;;3.10;;
39176;SDS011;24904;52.208;21.192;2023-07-29T15:07:29;4.00;;;2.10;;
39176;SDS011;24904;52.208;21.192;2023-07-29T15:12:34;4.80;;;3.30;;
39176;SDS011;24904;52.208;21.192;2023-07-29T15:17:40;2.70;;;2.10;;
39176;SDS011;24904;52.208;21.192;2023-07-29T15:22:45;2.80;;;1.80;;
39176;SDS011;24904;52.208;21.192;2023-07-29T15:27:50;3.30;;;2.20;;
39176;SDS011;24904;52.208;21.192;2023-07-29T15:32:55;3.20;;;2.20;;
39176;SDS011;24904;52.208;21.192;2023-07-29T15:38:00;3.10;;;2.00;;
39176;SDS011;24904;52.208;21.192;2023-07-29T15:43:06;3.00;;;2.10;;
39176;SDS011;24904;52.208;21.192;2023-07-29T15:48:11;5.80;;;2.30;;
39176;SDS011;24904;52.208;21.192;2023-07-29T15:53:16;5.30;;;1.90;;
39176;SDS011;24904;52.208;21.192;2023-07-29T15:58:21;2.20;;;1.80;;
39176;SDS011;24904;52.208;21.192;2023-07-29T16:03:26;1.90;;;1.70;;
39176;SDS011;24904;52.208;21.192;2023-07-29T16:08:31;3.80;;;2.10;;
39176;SDS011;24904;52.208;21.192;2023-07-29T16:13:36;2.50;;;1.80;;
39176;SDS011;24904;52.208;21.192;2023-07-29T16:18:41;9.40;;;2.70;;
39176;SDS011;24904;52.208;21.192;2023-07-29T16:23:46;4.50;;;2.10;;
39176;SDS011;24904;52.208;21.192;2023-07-29T16:28:54;3.10;;;2.10;;
39176;SDS011;24904;52.208;21.192;2023-07-29T16:34:00;4.10;;;1.90;;
39176;SDS011;24904;52.208;21.192;2023-07-29T16:39:05;6.50;;;1.90;;
39176;SDS011;24904;52.208;21.192;2023-07-29T16:44:10;2.90;;;2.00;;
39176;SDS011;24904;52.208;21.192;2023-07-29T16:49:15;6.90;;;2.20;;
39176;SDS011;24904;52.208;21.192;2023-07-29T16:54:21;3.40;;;2.30;;
39176;SDS011;24904;52.208;21.192;2023-07-29T16:59:26;3.10;;;2.10;;
39176;SDS011;24904;52.208;21.192;2023-07-29T17:04:31;5.70;;;2.20;;
39176;SDS011;24904;52.208;21.192;2023-07-29T17:09:36;4.30;;;2.00;;
39176;SDS011;24904;52.208;21.192;2023-07-29T17:14:41;6.00;;;2.00;;
39176;SDS011;24904;52.208;21.192;2023-07-29T17:19:46;2.80;;;2.10;;
39176;SDS011;24904;52.208;21.192;2023-07-29T17:24:51;7.10;;;2.40;;
39176;SDS011;24904;52.208;21.192;2023-07-29T17:29:56;3.30;;;2.30;;
39176;SDS011;24904;52.208;21.192;2023-07-29T17:35:01;3.90;;;2.60;;
39176;SDS011;24904;52.208;21.192;2023-07-29T17:40:08;5.20;;;2.90;;
39176;SDS011;24904;52.208;21.192;2023-07-29T17:45:14;4.00;;;2.50;;
39176;SDS011;24904;52.208;21.192;2023-07-29T17:50:19;3.60;;;2.60;;
39176;SDS011;24904;52.208;21.192;2023-07-29T17:55:24;3.30;;;2.40;;
39176;SDS011;24904;52.208;21.192;2023-07-29T18:00:29;3.40;;;2.60;;
39176;SDS011;24904;52.208;21.192;2023-07-29T18:05:35;4.30;;;2.70;;
39176;SDS011;24904;52.208;21.192;2023-07-29T18:10:41;5.20;;;2.70;;
39176;SDS011;24904;52.208;21.192;2023-07-29T18:15:46;5.30;;;3.30;;
39176;SDS011;24904;52.208;21.192;2023-07-29T18:25:58;5.40;;;2.60;;
39176;SDS011;24904;52.208;21.192;2023-07-29T18:31:03;4.50;;;3.00;;
39176;SDS011;24904;52.208;21.192;2023-07-29T18:36:08;6.70;;;3.00;;
39176;SDS011;24904;52.208;21.192;2023-07-29T18:41:13;7.60;;;3.60;;
39176;SDS011;24904;52.208;21.192;2023-07-29T18:46:18;4.00;;;3.10;;
39176;SDS011;24904;52.208;21.192;2023-07-29T18:51:23;5.00;;;3.60;;
39176;SDS011;24904;52.208;21.192;2023-07-29T18:56:28;4.60;;;3.30;;
39176;SDS011;24904;52.208;21.192;2023-07-29T19:01:33;4.80;;;3.40;;
39176;SDS011;24904;52.208;21.192;2023-07-29T19:06:38;8.30;;;4.00;;
39176;SDS011;24904;52.208;21.192;2023-07-29T19:11:43;6.60;;;4.00;;
39176;SDS011;24904;52.208;21.192;2023-07-29T19:16:48;5.20;;;4.30;;
39176;SDS011;24904;52.208;21.192;2023-07-29T19:21:53;5.70;;;4.00;;
39176;SDS011;24904;52.208;21.192;2023-07-29T19:26:58;11.70;;;4.10;;
39176;SDS011;24904;52.208;21.192;2023-07-29T19:32:06;9.00;;;4.50;;
39176;SDS011;24904;52.208;21.192;2023-07-29T19:37:11;6.20;;;3.90;;
39176;SDS011;24904;52.208;21.192;2023-07-29T19:42:17;6.70;;;4.10;;
39176;SDS011;24904;52.208;21.192;2023-07-29T19:47:22;5.60;;;4.30;;
39176;SDS011;24904;52.208;21.192;2023-07-29T19:52:27;7.40;;;3.90;;
39176;SDS011;24904;52.208;21.192;2023-07-29T19:57:32;6.30;;;4.00;;
39176;SDS011;24904;52.208;21.192;2023-07-29T20:02:37;6.20;;;4.20;;
39176;SDS011;24904;52.208;21.192;2023-07-29T20:07:42;8.00;;;4.50;;
39176;SDS011;24904;52.208;21.192;2023-07-29T20:12:48;7.40;;;4.70;;
39176;SDS011;24904;52.208;21.192;2023-07-29T20:24:26;6.10;;;4.80;;
39176;SDS011;24904;52.208;21.192;2023-07-29T20:29:31;7.70;;;4.50;;
39176;SDS011;24904;52.208;21.192;2023-07-29T20:34:36;6.60;;;4.30;;
39176;SDS011;24904;52.208;21.192;2023-07-29T20:39:41;6.70;;;4.70;;
39176;SDS011;24904;52.208;21.192;2023-07-29T20:44:46;7.80;;;4.80;;
39176;SDS011;24904;52.208;21.192;2023-07-29T20:49:51;7.70;;;4.60;;
39176;SDS011;24904;52.208;21.192;2023-07-29T20:54:56;5.10;;;4.30;;
39176;SDS011;24904;52.208;21.192;2023-07-29T21:00:01;11.60;;;4.80;;
39176;SDS011;24904;52.208;21.192;2023-07-29T21:05:10;5.90;;;4.50;;
39176;SDS011;24904;52.208;21.192;2023-07-29T21:10:16;4.90;;;4.10;;
39176;SDS011;24904;52.208;21.192;2023-07-29T21:15:21;7.20;;;4.20;;
39176;SDS011;24904;52.208;21.192;2023-07-29T21:20:26;5.90;;;4.10;;
39176;SDS011;24904;52.208;21.192;2023-07-29T21:25:32;13.50;;;4.30;;
39176;SDS011;24904;52.208;21.192;2023-07-29T21:30:37;12.80;;;3.70;;
39176;SDS011;24904;52.208;21.192;2023-07-29T21:35:42;6.80;;;2.90;;
39176;SDS011;24904;52.208;21.192;2023-07-29T21:40:48;8.40;;;2.80;;
39176;SDS011;24904;52.208;21.192;2023-07-29T21:45:54;6.80;;;2.80;;
39176;SDS011;24904;52.208;21.192;2023-07-29T21:50:59;5.80;;;2.30;;
39176;SDS011;24904;52.208;21.192;2023-07-29T21:56:04;7.10;;;2.70;;
39176;SDS011;24904;52.208;21.192;2023-07-29T22:01:09;10.50;;;2.40;;
39176;SDS011;24904;52.208;21.192;2023-07-29T22:06:14;10.40;;;2.80;;
39176;SDS011;24904;52.208;21.192;2023-07-29T22:11:21;6.40;;;2.80;;
39176;SDS011;24904;52.208;21.192;2023-07-29T22:16:26;6.70;;;3.00;;
39176;SDS011;24904;52.208;21.192;2023-07-29T22:21:31;8.40;;;3.60;;
39176;SDS011;24904;52.208;21.192;2023-07-29T22:26:37;6.30;;;3.10;;
39176;SDS011;24904;52.208;21.192;2023-07-29T22:31:41;9.30;;;3.30;;
39176;SDS011;24904;52.208;21.192;2023-07-29T22:36:47;10.00;;;2.80;;
39176;SDS011;24904;52.208;21.192;2023-07-29T22:41:52;5.50;;;2.60;;
39176;SDS011;24904;52.208;21.192;2023-07-29T22:46:57;4.80;;;2.70;;
39176;SDS011;24904;52.208;21.192;2023-07-29T22:52:02;5.40;;;2.70;;
39176;SDS011;24904;52.208;21.192;2023-07-29T22:57:08;4.60;;;2.70;;
39176;SDS011;24904;52.208;21.192;2023-07-29T23:02:13;5.90;;;2.30;;
39176;SDS011;24904;52.208;21.192;2023-07-29T23:07:18;9.00;;;2.40;;
39176;SDS011;24904;52.208;21.192;2023-07-29T23:12:23;6.00;;;2.60;;
39176;SDS011;24904;52.208;21.192;2023-07-29T23:17:28;5.50;;;2.70;;
39176;SDS011;24904;52.208;21.192;2023-07-29T23:22:33;4.10;;;2.80;;
39176;SDS011;24904;52.208;21.192;2023-07-29T23:27:38;4.70;;;2.90;;
39176;SDS011;24904;52.208;21.192;2023-07-29T23:32:43;4.50;;;2.80;;
39176;SDS011;24904;52.208;21.192;2023-07-29T23:37:48;4.70;;;2.70;;
39176;SDS011;24904;52.208;21.192;2023-07-29T23:42:53;6.30;;;3.00;;
39176;SDS011;24904;52.208;21.192;2023-07-29T23:48:37;4.40;;;2.40;;
39176;SDS011;24904;52.208;21.192;2023-07-29T23:53:40;5.40;;;2.90;;
39176;SDS011;24904;52.208;21.192;2023-07-29T23:58:43;6.30;;;3.20;;
